Time;durP1;ratioP1;P1;durP2;ratioP2;P2;SDS_P1;SDS_P2;PMS_P1;PMS_P2;Temp;Humidity;BMP_temperature;BMP_pressure;BME280_temperature;BME280_humidity;BME280_pressure;Samples;Min_cycle;Max_cycle;Signal;HPM_P1;HPM_P2
2022/10/07 00:00:28;;;;;;;;;17.20;17.20;;;;;17.64;65.60;100240.53;6163804;28;97142;-64
2022/10/07 00:03:32;;;;;;;;;19.20;19.00;;;;;17.61;65.78;100241.00;6164496;28;96815;-64
2022/10/07 00:06:35;;;;;;;;;20.00;18.00;;;;;17.52;65.49;100236.91;6146488;28;96149;-64
2022/10/07 00:09:39;;;;;;;;;20.33;18.33;;;;;17.50;65.37;100239.84;6163106;28;96825;-64
2022/10/07 00:12:42;;;;;;;;;18.20;17.60;;;;;17.48;65.09;100233.00;6163667;28;96343;-65
2022/10/07 00:15:47;;;;;;;;;19.00;17.00;;;;;17.43;64.59;100232.88;6163637;28;96369;-66
2022/10/07 00:18:53;;;;;;;;;18.20;17.20;;;;;17.38;64.89;100227.28;6146186;28;96700;-66
2022/10/07 00:21:56;;;;;;;;;16.75;16.00;;;;;17.33;64.78;100231.53;6163933;28;96428;-67
2022/10/07 00:25:00;;;;;;;;;19.50;19.00;;;;;17.31;65.01;100222.75;6150915;28;97213;-64
2022/10/07 00:28:03;;;;;;;;;19.00;18.00;;;;;17.28;64.60;100230.56;6162883;28;96554;-64
2022/10/07 00:31:10;;;;;;;;;16.00;15.20;;;;;17.26;66.35;100232.69;6161996;28;96570;-65
2022/10/07 00:34:14;;;;;;;;;21.00;17.00;;;;;17.21;67.26;100224.38;6145119;28;96431;-64
2022/10/07 00:37:19;;;;;;;;;15.60;14.60;;;;;17.15;67.70;100225.34;6144961;28;96508;-64
2022/10/07 00:40:22;;;;;;;;;16.20;14.00;;;;;17.08;67.49;100219.97;6162068;28;97754;-65
2022/10/07 00:43:28;;;;;;;;;17.00;14.20;;;;;17.04;66.74;100205.16;6161749;28;98402;-65
2022/10/07 00:46:36;;;;;;;;;19.00;17.50;;;;;17.02;66.17;100206.44;6145886;28;96890;-65
2022/10/07 00:49:44;;;;;;;;;18.00;16.00;;;;;16.97;65.69;100195.38;6143703;28;97312;-65
2022/10/07 00:52:52;;;;;;;;;16.50;16.00;;;;;16.96;65.72;100210.09;6160922;28;96559;-65
2022/10/07 00:56:00;;;;;;;;;18.00;16.75;;;;;16.95;66.32;100206.53;6161375;28;96373;-65
2022/10/07 00:59:05;;;;;;;;;18.40;16.60;;;;;16.96;65.98;100202.72;6157204;28;97188;-64
2022/10/07 01:02:09;;;;;;;;;16.20;15.20;;;;;16.90;65.18;100198.22;6143601;28;96511;-66
2022/10/07 01:05:14;;;;;;;;;17.00;16.00;;;;;16.86;64.92;100197.00;6145811;28;96557;-65
2022/10/07 01:08:19;;;;;;;;;18.00;17.00;;;;;16.79;65.42;100191.66;6138621;28;96837;-64
2022/10/07 01:11:39;;;;;;;;;17.00;16.00;;;;;16.75;66.25;100195.91;6171608;28;98133;-65
2022/10/07 01:14:56;;;;;;;;;17.00;15.40;;;;;16.68;65.51;100191.59;6162606;28;97158;-65
2022/10/07 01:18:06;;;;;;;;;16.00;14.00;;;;;16.65;65.58;100192.91;6154615;28;96830;-64
2022/10/07 01:21:22;;;;;;;;;17.00;17.00;;;;;16.60;65.02;100190.03;6158795;28;96887;-65
2022/10/07 01:24:37;;;;;;;;;18.00;15.40;;;;;16.55;64.89;100189.03;6145718;28;96339;-65
2022/10/07 01:27:46;;;;;;;;;21.00;18.75;;;;;16.48;66.34;100179.03;6161171;28;97127;-65
2022/10/07 01:30:56;;;;;;;;;17.60;16.00;;;;;16.38;65.60;100177.91;6153800;28;96436;-67
2022/10/07 01:34:01;;;;;;;;;16.00;15.40;;;;;16.43;64.68;100178.91;6129039;28;96870;-66
2022/10/07 01:37:08;;;;;;;;;17.00;15.40;;;;;16.38;64.63;100186.91;6160969;28;96352;-65
2022/10/07 01:40:16;;;;;;;;;19.00;18.00;;;;;16.37;65.41;100179.00;6143301;28;96685;-66
2022/10/07 01:43:22;;;;;;;;;17.00;16.00;;;;;16.26;64.79;100168.88;6162277;28;97031;-65
2022/10/07 01:46:29;;;;;;;;;17.00;16.50;;;;;16.19;64.76;100159.94;6159000;28;96411;-64
2022/10/07 01:49:36;;;;;;;;;18.00;17.00;;;;;16.15;64.15;100169.63;6145395;28;97645;-65
2022/10/07 01:52:54;;;;;;;;;19.60;17.60;;;;;16.17;64.44;100173.78;6144607;28;96739;-64
2022/10/07 01:56:14;;;;;;;;;16.00;15.40;;;;;16.13;64.68;100171.72;6162179;28;96434;-64
2022/10/07 01:59:50;;;;;;;;;19.00;18.00;;;;;16.06;64.46;100166.38;6144633;28;96943;-65
2022/10/07 02:03:21;;;;;;;;;18.80;17.40;;;;;16.02;64.64;100166.00;6158678;28;96903;-65
2022/10/07 02:06:39;;;;;;;;;18.00;17.00;;;;;15.87;64.66;100151.94;6161332;28;96842;-65
2022/10/07 02:09:50;;;;;;;;;15.33;14.00;;;;;15.92;63.96;100165.69;6144477;28;97487;-65
2022/10/07 02:13:00;;;;;;;;;16.00;15.00;;;;;15.89;64.14;100166.13;6144460;28;96244;-65
2022/10/07 02:16:16;;;;;;;;;16.00;15.00;;;;;15.81;64.10;100165.59;6156728;28;97713;-65
2022/10/07 02:19:24;;;;;;;;;18.80;17.80;;;;;15.76;64.06;100168.97;6144666;28;96676;-65
2022/10/07 02:22:29;;;;;;;;;15.25;14.25;;;;;15.71;64.75;100157.94;6123508;28;96846;-64
2022/10/07 02:25:38;;;;;;;;;15.80;15.40;;;;;15.67;65.14;100162.19;6139879;28;97488;-64
2022/10/07 02:28:44;;;;;;;;;17.00;16.60;;;;;15.68;66.06;100165.72;6139636;28;98013;-65
2022/10/07 02:31:52;;;;;;;;;16.40;15.00;;;;;15.68;66.71;100165.72;6134773;28;96330;-65
2022/10/07 02:35:01;;;;;;;;;17.25;16.00;;;;;15.66;65.38;100159.66;6159727;28;97227;-65
2022/10/07 02:38:11;;;;;;;;;15.75;14.25;;;;;15.61;64.61;100154.91;6117384;28;97966;-65
2022/10/07 02:41:30;;;;;;;;;17.00;15.50;;;;;15.55;66.10;100153.06;6137020;28;97204;-65
2022/10/07 02:44:51;;;;;;;;;16.00;16.00;;;;;15.52;64.53;100145.38;6122312;28;98591;-65
2022/10/07 02:48:00;;;;;;;;;17.80;15.20;;;;;15.47;65.11;100151.44;6141715;28;96388;-65
2022/10/07 02:51:08;;;;;;;;;17.00;15.60;;;;;15.44;65.24;100145.63;6139820;28;96213;-65
2022/10/07 02:54:16;;;;;;;;;15.00;14.00;;;;;15.43;64.95;100147.53;6135747;28;96539;-65
2022/10/07 02:57:21;;;;;;;;;19.40;17.00;;;;;15.40;64.82;100144.38;6141693;28;96485;-66
2022/10/07 03:00:25;;;;;;;;;15.40;15.00;;;;;15.36;64.38;100148.63;6140033;28;96375;-65
2022/10/07 03:03:30;;;;;;;;;18.00;18.00;;;;;15.33;64.34;100144.47;6141250;28;96358;-66
2022/10/07 03:06:37;;;;;;;;;15.00;15.00;;;;;15.29;64.18;100145.97;6123895;28;96751;-64
2022/10/07 03:09:41;;;;;;;;;16.40;15.40;;;;;15.25;65.12;100143.91;6139218;28;96731;-65
2022/10/07 03:12:47;;;;;;;;;15.60;14.00;;;;;15.26;66.04;100140.97;6133920;28;96279;-65
2022/10/07 03:15:50;;;;;;;;;17.00;16.00;;;;;15.28;66.23;100138.88;6138638;28;96931;-65
2022/10/07 03:19:00;;;;;;;;;16.00;14.75;;;;;15.24;64.68;100140.38;6149460;28;96735;-65
2022/10/07 03:22:10;;;;;;;;;14.40;13.60;;;;;15.18;64.49;100136.66;6127365;28;96622;-66
2022/10/07 03:25:15;;;;;;;;;15.00;14.40;;;;;15.12;64.35;100134.81;6140022;28;96288;-65
2022/10/07 03:28:20;;;;;;;;;14.00;13.00;;;;;15.05;63.52;100134.00;6140455;28;96972;-64
2022/10/07 03:31:24;;;;;;;;;16.40;15.40;;;;;14.99;63.58;100139.50;6131601;28;96963;-66
2022/10/07 03:34:33;;;;;;;;;15.00;15.00;;;;;14.96;64.23;100138.06;6139242;28;96486;-64
2022/10/07 03:37:36;;;;;;;;;17.40;16.40;;;;;14.96;65.16;100132.63;6124248;28;96789;-64
2022/10/07 03:40:44;;;;;;;;;15.00;15.00;;;;;15.00;66.24;100133.03;6115695;28;98863;-65
2022/10/07 03:43:48;;;;;;;;;16.80;15.80;;;;;15.02;66.53;100126.31;6129947;28;97173;-65
2022/10/07 03:46:55;;;;;;;;;18.80;17.00;;;;;15.03;66.09;100125.28;6112428;28;96692;-65
2022/10/07 03:50:02;;;;;;;;;17.33;16.00;;;;;15.03;66.31;100127.16;6098000;28;96686;-65
2022/10/07 03:53:07;;;;;;;;;19.00;18.00;;;;;15.04;66.27;100123.38;6120180;28;96395;-66
2022/10/07 03:56:11;;;;;;;;;18.00;17.60;;;;;15.02;66.45;100125.47;6118243;28;97037;-66
2022/10/07 03:59:17;;;;;;;;;16.25;16.00;;;;;15.02;66.59;100125.47;6092990;28;97137;-66
2022/10/07 04:02:22;;;;;;;;;18.00;17.00;;;;;14.99;66.90;100118.63;6108022;28;97270;-66
2022/10/07 04:05:28;;;;;;;;;18.20;17.20;;;;;14.90;66.59;100108.25;6137655;28;97328;-66
2022/10/07 04:08:32;;;;;;;;;21.00;20.00;;;;;14.93;66.92;100108.63;6115488;28;96301;-66
2022/10/07 04:11:39;;;;;;;;;21.33;18.00;;;;;14.90;66.40;100110.97;6114370;28;96881;-66
2022/10/07 04:14:43;;;;;;;;;17.80;16.80;;;;;14.89;66.88;100104.69;6113080;28;96673;-65
2022/10/07 04:17:48;;;;;;;;;19.00;18.00;;;;;14.88;66.77;100103.03;6111423;28;96814;-73
2022/10/07 04:20:58;;;;;;;;;19.40;18.40;;;;;14.93;67.25;100102.38;6128930;28;96710;-74
2022/10/07 04:24:02;;;;;;;;;21.80;19.40;;;;;14.99;68.97;100099.59;6129519;28;96950;-73
2022/10/07 04:27:06;;;;;;;;;15.50;15.00;;;;;15.04;70.25;100085.38;6114246;28;97060;-73
2022/10/07 04:30:11;;;;;;;;;18.40;17.00;;;;;15.08;69.63;100090.13;6124034;28;97090;-73
2022/10/07 04:33:15;;;;;;;;;16.80;16.00;;;;;15.08;69.47;100092.84;6118869;28;96277;-73
2022/10/07 04:36:20;;;;;;;;;18.00;17.40;;;;;15.04;68.79;100082.66;6120031;28;97774;-73
2022/10/07 04:39:44;;;;;;;;;16.00;14.80;;;;;15.07;68.79;100084.91;6163279;28;96894;-72
2022/10/07 04:43:23;;;;;;;;;15.00;14.00;;;;;15.09;68.82;100088.25;6146600;28;96609;-73
2022/10/07 04:46:32;;;;;;;;;14.80;14.20;;;;;15.16;70.16;100080.84;6141988;28;97721;-71
2022/10/07 04:49:42;;;;;;;;;13.20;13.20;;;;;15.25;69.72;100082.22;6144677;28;97307;-72
2022/10/07 04:52:47;;;;;;;;;16.00;14.00;;;;;15.34;69.34;100085.53;6145969;28;96429;-72
2022/10/07 04:55:51;;;;;;;;;15.80;15.00;;;;;15.39;69.12;100091.13;6143982;28;96666;-71
2022/10/07 04:58:57;;;;;;;;;16.60;16.60;;;;;15.40;70.11;100080.00;6128989;28;96698;-71
2022/10/07 05:02:01;;;;;;;;;17.20;16.20;;;;;15.41;70.20;100086.28;6124073;28;97917;-72
2022/10/07 05:05:08;;;;;;;;;17.00;15.50;;;;;15.44;70.62;100086.66;6147492;28;96859;-70
2022/10/07 05:08:15;;;;;;;;;16.00;15.80;;;;;15.42;70.40;100086.06;6157509;28;96392;-71
2022/10/07 05:11:19;;;;;;;;;17.00;16.00;;;;;15.47;70.39;100085.38;6143518;28;96310;-72
2022/10/07 05:14:29;;;;;;;;;20.00;17.00;;;;;15.47;70.90;100086.22;6148797;28;97525;-70
2022/10/07 05:17:35;;;;;;;;;15.75;14.25;;;;;15.52;70.45;100080.97;6148610;28;96269;-69
2022/10/07 05:20:41;;;;;;;;;17.40;15.80;;;;;15.53;70.58;100085.38;6143817;28;96901;-70
2022/10/07 05:23:47;;;;;;;;;17.00;16.00;;;;;15.64;70.65;100080.25;6141069;28;96684;-70
2022/10/07 05:26:56;;;;;;;;;20.80;19.40;;;;;15.73;70.33;100079.72;6141384;28;96858;-72
2022/10/07 05:29:59;;;;;;;;;18.20;17.00;;;;;15.87;69.78;100083.09;6139657;28;96729;-70
2022/10/07 05:33:08;;;;;;;;;20.00;17.00;;;;;15.98;69.56;100087.75;6124872;28;98409;-70
2022/10/07 05:36:19;;;;;;;;;14.00;14.00;;;;;16.08;69.06;100087.25;6158448;28;97493;-71
2022/10/07 05:39:25;;;;;;;;;18.50;16.50;;;;;16.26;68.68;100088.06;6140728;28;96658;-70
2022/10/07 05:42:40;;;;;;;;;18.00;17.00;;;;;16.46;67.86;100083.19;6136160;28;96388;-69
2022/10/07 05:45:46;;;;;;;;;20.50;17.75;;;;;16.59;67.03;100089.50;6139916;28;97322;-70
2022/10/07 05:48:51;;;;;;;;;16.60;15.00;;;;;16.68;66.80;100083.50;6150088;28;96292;-69
2022/10/07 05:51:58;;;;;;;;;17.60;14.40;;;;;16.81;66.58;100077.84;6120786;28;96982;-70
2022/10/07 05:55:03;;;;;;;;;17.00;16.00;;;;;16.92;66.04;100087.13;6152413;28;97107;-69
2022/10/07 05:58:07;;;;;;;;;20.20;17.80;;;;;17.01;65.54;100088.44;6118896;28;96747;-70
2022/10/07 06:01:15;;;;;;;;;19.00;17.00;;;;;17.13;65.41;100091.19;6154799;28;96458;-70
2022/10/07 06:04:19;;;;;;;;;19.40;17.00;;;;;17.38;65.02;100088.25;6140750;28;96261;-70
2022/10/07 06:07:24;;;;;;;;;18.00;15.00;;;;;17.49;64.57;100066.44;6156165;28;96633;-71
2022/10/07 06:13:56;;;;;;;;;17.00;15.00;;;;;18.02;62.84;100082.63;6141955;28;96720;-69
2022/10/07 06:17:00;;;;;;;;;16.00;15.00;;;;;18.46;61.62;100102.06;6128465;28;96885;-71
2022/10/07 06:20:04;;;;;;;;;19.50;15.50;;;;;18.88;60.10;100097.97;6138922;28;96399;-71
2022/10/07 06:23:08;;;;;;;;;17.00;15.00;;;;;19.44;57.41;100096.19;6163296;28;96727;-71
2022/10/07 06:26:13;;;;;;;;;19.00;17.33;;;;;19.96;55.34;100095.84;6153928;28;97573;-70
2022/10/07 06:29:17;;;;;;;;;17.25;15.50;;;;;20.48;53.60;100098.97;6153076;28;96385;-72
2022/10/07 06:32:21;;;;;;;;;34.75;32.25;;;;;21.07;51.96;100097.09;6137143;28;97122;-71
2022/10/07 06:35:25;;;;;;;;;29.20;29.00;;;;;21.88;49.96;100093.06;6141708;28;96465;-70
2022/10/07 06:38:30;;;;;;;;;26.83;25.83;;;;;23.11;45.04;100097.88;6145920;28;96621;-71
2022/10/07 06:41:35;;;;;;;;;64.00;53.00;;;;;24.67;42.25;100096.66;6145502;28;96355;-71
2022/10/07 06:44:57;;;;;;;;;17.00;16.00;;;;;25.69;39.63;100094.78;6163005;28;96736;-70
2022/10/07 06:48:01;;;;;;;;;19.00;18.00;;;;;26.09;38.01;100095.44;6160039;28;96538;-70
2022/10/07 06:51:05;;;;;;;;;21.50;19.00;;;;;27.24;36.30;100094.94;6159584;28;96312;-71
2022/10/07 06:54:09;;;;;;;;;22.00;21.00;;;;;29.15;32.95;100089.38;6145269;28;96380;-72
2022/10/07 06:57:14;;;;;;;;;21.50;20.00;;;;;30.96;29.98;100079.78;6162559;28;96510;-71
2022/10/07 07:00:37;;;;;;;;;20.00;18.40;;;;;32.19;28.74;100088.41;6161217;28;96669;-72
2022/10/07 07:03:41;;;;;;;;;21.00;18.60;;;;;32.71;26.53;100085.28;6123355;28;96816;-72
2022/10/07 07:06:45;;;;;;;;;17.00;16.00;;;;;33.78;25.17;100079.69;6137908;28;96563;-73
2022/10/07 07:09:50;;;;;;;;;18.50;18.25;;;;;34.49;24.49;100074.50;6162796;28;98094;-73
2022/10/07 07:12:57;;;;;;;;;18.00;18.00;;;;;34.65;24.26;100080.19;6146353;28;96746;-73
2022/10/07 07:16:00;;;;;;;;;19.80;19.80;;;;;34.02;24.20;100081.69;6147666;28;96635;-73
2022/10/07 07:19:12;;;;;;;;;18.20;17.00;;;;;32.41;26.50;100079.72;6147063;28;97398;-72
2022/10/07 07:22:17;;;;;;;;;23.50;22.00;;;;;30.66;28.59;100066.84;6127870;28;97118;-72
2022/10/07 07:25:23;;;;;;;;;18.60;17.00;;;;;30.04;29.62;100066.22;6153301;28;96762;-73
2022/10/07 07:28:30;;;;;;;;;24.20;22.00;;;;;29.81;30.01;100068.19;6172504;28;96359;-73
2022/10/07 07:31:36;;;;;;;;;22.40;21.00;;;;;29.27;31.49;100063.81;6171821;28;96426;-73
2022/10/07 07:34:40;;;;;;;;;24.25;21.25;;;;;28.41;32.24;100063.06;6179629;28;96272;-73
2022/10/07 07:37:49;;;;;;;;;23.00;21.00;;;;;28.28;32.57;100061.97;6518456;22;98491;-73
2022/10/07 07:40:53;;;;;;;;;21.25;19.00;;;;;27.88;33.24;100048.91;6239329;27;98601;-73
2022/10/07 07:44:00;;;;;;;;;24.00;22.00;;;;;28.35;33.22;100055.97;6256175;27;96704;-73
2022/10/07 07:47:05;;;;;;;;;20.00;18.60;;;;;29.73;31.45;100048.69;6246834;27;98985;-73
2022/10/07 07:50:09;;;;;;;;;20.00;19.00;;;;;31.55;28.75;100045.78;6241527;27;96442;-73
2022/10/07 07:53:12;;;;;;;;;22.00;20.00;;;;;33.18;26.85;100046.81;6236528;27;96966;-73
2022/10/07 07:56:17;;;;;;;;;24.50;22.00;;;;;34.46;25.23;100049.16;6235222;28;96293;-74
2022/10/07 07:59:24;;;;;;;;;22.00;19.60;;;;;35.32;23.48;100050.53;6218563;28;99859;-73
2022/10/07 08:02:30;;;;;;;;;21.00;20.00;;;;;35.97;22.90;100049.88;6230475;28;96869;-73
2022/10/07 08:05:34;;;;;;;;;21.60;17.00;;;;;37.17;22.37;100045.41;6235212;28;97227;-73
2022/10/07 08:08:39;;;;;;;;;22.00;20.00;;;;;38.33;21.38;100028.94;6217286;28;98921;-73
2022/10/07 08:11:44;;;;;;;;;21.40;18.80;;;;;38.81;19.93;100015.94;6253381;27;96382;-73
2022/10/07 08:14:52;;;;;;;;;21.80;18.80;;;;;39.59;19.80;100031.75;6219735;28;98921;-74
2022/10/07 08:17:56;;;;;;;;;19.00;17.00;;;;;39.81;18.92;100029.97;6236807;28;96589;-75
2022/10/07 08:21:01;;;;;;;;;20.33;18.00;;;;;39.98;18.51;100031.31;6237799;28;97408;-74
2022/10/07 08:24:07;;;;;;;;;19.60;18.60;;;;;39.98;19.10;100025.69;6233685;28;96383;-73
2022/10/07 08:27:13;;;;;;;;;18.50;18.00;;;;;40.19;18.30;100025.84;6252173;27;97158;-73
2022/10/07 08:30:17;;;;;;;;;16.40;15.40;;;;;40.66;18.44;100020.06;6237829;27;96395;-73
2022/10/07 08:33:23;;;;;;;;;17.20;16.60;;;;;40.66;17.76;100017.25;6253920;27;96733;-73
2022/10/07 08:36:28;;;;;;;;;17.60;16.00;;;;;40.75;17.13;100002.75;6237276;27;96921;-73
2022/10/07 08:39:32;;;;;;;;;18.40;16.40;;;;;41.17;18.21;100004.94;6157245;27;96714;-74
2022/10/07 08:42:39;;;;;;;;;18.00;16.80;;;;;41.40;17.40;100004.56;6217178;27;98469;-73
2022/10/07 08:45:45;;;;;;;;;18.20;16.80;;;;;41.57;17.36;100003.00;6135543;28;96407;-73
2022/10/07 08:48:56;;;;;;;;;19.00;17.00;;;;;41.65;17.25;99998.94;6176006;28;97014;-73
2022/10/07 08:52:05;;;;;;;;;20.00;17.00;;;;;41.67;16.88;99991.69;6192145;28;97004;-72
2022/10/07 08:55:18;;;;;;;;;16.25;15.25;;;;;41.67;17.57;99988.84;6210525;27;96584;-73
2022/10/07 08:58:39;;;;;;;;;17.50;17.00;;;;;41.97;17.51;99985.63;6139798;28;96491;-73
2022/10/07 09:01:57;;;;;;;;;18.40;17.40;;;;;42.03;17.26;99980.34;6208021;27;97445;-73
2022/10/07 09:05:09;;;;;;;;;18.00;16.00;;;;;42.40;16.88;99982.69;6126412;28;96728;-71
2022/10/07 09:08:20;;;;;;;;;17.00;16.50;;;;;42.66;16.38;99983.00;6172344;28;98547;-69
2022/10/07 09:11:26;;;;;;;;;15.00;14.00;;;;;42.89;16.50;99968.34;6134415;28;96410;-69
2022/10/07 09:14:33;;;;;;;;;17.40;16.40;;;;;43.05;16.45;99971.50;6132984;28;97276;-69
2022/10/07 09:17:43;;;;;;;;;19.40;16.00;;;;;43.16;16.59;99969.41;6200437;28;96756;-69
2022/10/07 09:20:52;;;;;;;;;16.60;14.60;;;;;43.24;16.60;99961.66;6200514;28;96414;-71
2022/10/07 09:24:01;;;;;;;;;17.00;15.40;;;;;43.40;16.40;99947.72;6188736;27;97036;-69
2022/10/07 09:27:13;;;;;;;;;17.00;15.60;;;;;43.29;16.55;99949.84;6200992;28;97236;-69
2022/10/07 09:30:16;;;;;;;;;15.00;15.00;;;;;43.29;16.31;99951.88;6199065;28;97253;-70
2022/10/07 09:33:23;;;;;;;;;18.00;15.00;;;;;43.28;16.48;99948.25;6217451;27;96915;-70
2022/10/07 09:36:27;;;;;;;;;17.80;15.00;;;;;43.31;16.95;99947.38;6199964;28;99044;-70
2022/10/07 09:39:30;;;;;;;;;18.00;16.00;;;;;43.25;16.25;99949.09;6131770;28;96983;-69
2022/10/07 09:42:37;;;;;;;;;16.00;14.00;;;;;43.11;16.83;99946.31;6198170;28;98346;-70
2022/10/07 09:45:45;;;;;;;;;16.00;14.00;;;;;43.27;16.81;99935.25;6197666;27;96498;-70
2022/10/07 09:48:54;;;;;;;;;15.00;14.00;;;;;43.47;16.65;99939.19;6131791;28;96960;-70
2022/10/07 09:52:02;;;;;;;;;13.80;13.00;;;;;43.72;16.18;99938.16;6202869;27;97103;-70
2022/10/07 09:55:32;;;;;;;;;13.00;12.00;;;;;43.91;16.21;99940.41;6201590;28;98356;-69
2022/10/07 09:58:35;;;;;;;;;14.00;12.20;;;;;44.03;15.82;99934.22;6134582;28;96441;-69
2022/10/07 10:01:40;;;;;;;;;13.40;13.00;;;;;43.76;15.53;99925.53;6201297;28;96864;-69
2022/10/07 10:04:50;;;;;;;;;13.00;12.00;;;;;43.73;16.55;99926.38;6200162;28;96953;-69
2022/10/07 10:07:57;;;;;;;;;13.75;13.00;;;;;43.72;16.46;99921.09;6217655;27;97967;-69
2022/10/07 10:11:02;;;;;;;;;12.00;12.00;;;;;43.82;16.01;99920.19;6200538;28;98367;-69
2022/10/07 10:14:28;;;;;;;;;13.50;12.00;;;;;43.89;16.01;99908.78;6134704;28;96408;-69
2022/10/07 10:17:39;;;;;;;;;12.00;12.00;;;;;43.61;16.05;99896.44;6133628;27;97086;-69
2022/10/07 10:20:45;;;;;;;;;14.00;12.20;;;;;43.54;16.52;99899.38;6133239;27;96810;-69
2022/10/07 10:23:51;;;;;;;;;13.00;12.00;;;;;43.74;16.83;99895.94;6123084;28;96525;-68
2022/10/07 10:27:02;;;;;;;;;13.75;12.75;;;;;43.74;16.36;99895.94;6198957;28;96252;-68
2022/10/07 10:30:09;;;;;;;;;11.00;10.00;;;;;43.07;16.88;99886.75;6217746;27;96371;-69
2022/10/07 10:33:23;;;;;;;;;11.00;10.00;;;;;42.61;17.60;99870.00;6134074;28;96454;-68
2022/10/07 10:36:34;;;;;;;;;13.40;12.00;;;;;42.36;16.95;99872.16;6133980;27;96264;-70
2022/10/07 10:39:52;;;;;;;;;11.60;10.00;;;;;42.16;18.17;99874.66;6182762;28;98851;-68
2022/10/07 10:43:16;;;;;;;;;11.00;10.00;;;;;42.30;17.31;99859.63;6134177;28;96628;-69
2022/10/07 10:46:34;;;;;;;;;12.00;12.00;;;;;42.67;17.66;99859.00;6133899;28;96348;-70
2022/10/07 10:49:44;;;;;;;;;12.00;12.00;;;;;43.02;17.15;99852.31;6166310;27;96679;-68
2022/10/07 10:53:00;;;;;;;;;12.00;10.60;;;;;43.09;17.02;99843.78;6130038;28;96466;-67
2022/10/07 10:56:25;;;;;;;;;13.00;12.00;;;;;43.31;16.87;99842.34;6131951;28;96392;-68
2022/10/07 10:59:51;;;;;;;;;11.60;10.00;;;;;43.50;16.70;99823.94;6133570;28;96909;-68
2022/10/07 11:03:32;;;;;;;;;10.00;10.00;;;;;43.63;16.29;99825.03;6134834;28;96470;-70
2022/10/07 11:06:40;;;;;;;;;12.00;12.00;;;;;43.33;16.19;99825.72;6123964;28;96402;-68
2022/10/07 11:09:51;;;;;;;;;11.60;11.40;;;;;42.86;16.22;99818.81;6134035;28;96222;-69
2022/10/07 11:12:57;;;;;;;;;12.60;11.00;;;;;42.75;16.90;99815.25;6135142;28;98050;-70
2022/10/07 11:16:06;;;;;;;;;12.00;11.20;;;;;42.75;17.13;99795.38;6136533;28;96808;-71
2022/10/07 11:19:16;;;;;;;;;13.40;12.60;;;;;43.22;17.14;99793.78;6213205;27;96573;-71
2022/10/07 11:22:31;;;;;;;;;12.00;11.00;;;;;43.34;16.50;99795.31;6190388;28;98639;-70
2022/10/07 11:25:42;;;;;;;;;11.60;11.00;;;;;43.09;15.81;99787.03;6137074;28;96984;-70
2022/10/07 11:28:48;;;;;;;;;11.00;11.00;;;;;43.08;16.66;99782.56;6137443;28;97129;-71
2022/10/07 11:32:00;;;;;;;;;12.20;11.00;;;;;42.57;16.68;99781.28;6137168;28;96544;-66
2022/10/07 11:35:20;;;;;;;;;13.00;12.00;;;;;42.58;16.94;99773.59;6203188;28;96369;-71
2022/10/07 11:38:32;;;;;;;;;11.40;10.40;;;;;42.39;16.69;99760.78;6200804;28;96874;-70
2022/10/07 11:41:51;;;;;;;;;10.80;10.00;;;;;42.46;17.16;99759.94;6198417;27;98371;-71
2022/10/07 11:45:01;;;;;;;;;11.40;11.00;;;;;42.39;17.66;99757.13;6136794;28;96442;-73
2022/10/07 11:48:12;;;;;;;;;11.00;10.20;;;;;41.81;17.08;99748.09;6187735;28;96660;-72
2022/10/07 11:51:23;;;;;;;;;12.80;12.80;;;;;41.40;17.44;99738.50;6192552;28;98418;-71
2022/10/07 11:54:32;;;;;;;;;11.60;11.00;;;;;41.26;18.25;99730.84;6136379;28;96243;-71
2022/10/07 11:57:42;;;;;;;;;13.60;13.00;;;;;41.44;18.15;99730.81;6144695;28;97091;-72
2022/10/07 12:00:45;;;;;;;;;12.40;12.40;;;;;41.54;18.09;99726.38;6206389;28;96253;-72
2022/10/07 12:03:50;;;;;;;;;11.00;10.25;;;;;41.42;18.35;99727.56;6141244;28;96583;-72
2022/10/07 12:07:31;;;;;;;;;13.00;12.00;;;;;41.02;18.35;99714.69;6191510;28;96818;-71
2022/10/07 12:10:34;;;;;;;;;12.00;11.00;;;;;40.14;18.77;99707.75;6204596;28;96531;-73
2022/10/07 12:13:42;;;;;;;;;14.20;13.00;;;;;39.61;19.65;99706.75;6126477;28;96799;-71
2022/10/07 12:16:54;;;;;;;;;12.25;12.00;;;;;38.82;19.98;99704.63;6140920;28;96844;-67
2022/10/07 12:20:44;;;;;;;;;11.00;10.00;;;;;38.24;20.27;99699.69;6141847;27;96239;-72
2022/10/07 12:23:47;;;;;;;;;12.00;12.00;;;;;37.59;20.82;99688.06;6206716;28;96716;-71
2022/10/07 12:27:08;;;;;;;;;13.80;12.00;;;;;37.10;22.11;99686.16;6224709;27;96954;-72
2022/10/07 12:30:38;;;;;;;;;13.75;13.00;;;;;36.72;22.51;99678.75;6224881;27;96293;-70
2022/10/07 12:33:56;;;;;;;;;13.20;12.20;;;;;36.22;22.99;99671.44;6204907;28;96138;-70
2022/10/07 12:37:36;;;;;;;;;12.00;11.00;;;;;35.96;23.55;99669.34;6140263;28;96256;-71
2022/10/07 12:40:40;;;;;;;;;13.00;11.60;;;;;35.59;23.25;99660.56;6211623;28;96351;-71
2022/10/07 12:43:49;;;;;;;;;13.00;12.00;;;;;35.42;24.08;99660.22;6145479;27;96406;-71
2022/10/07 12:47:00;;;;;;;;;13.80;12.80;;;;;35.14;24.20;99646.34;6181418;28;96979;-72
2022/10/07 12:50:11;;;;;;;;;11.00;10.00;;;;;34.77;24.06;99645.91;6220752;27;97142;-73
2022/10/07 12:53:15;;;;;;;;;9.60;8.60;;;;;34.45;25.26;99653.53;6137685;28;97469;-74
2022/10/07 12:56:24;;;;;;;;;12.00;11.00;;;;;34.38;25.06;99638.53;6141743;28;96939;-73
2022/10/07 12:59:50;;;;;;;;;12.00;10.60;;;;;34.35;24.87;99646.50;6140436;28;96240;-72
2022/10/07 13:03:29;;;;;;;;;12.00;11.00;;;;;34.06;25.24;99638.50;6159271;28;96691;-73
2022/10/07 13:06:57;;;;;;;;;13.50;13.50;;;;;34.03;25.43;99628.03;6173374;27;96466;-72
2022/10/07 13:10:29;;;;;;;;;11.00;10.40;;;;;33.91;25.79;99630.91;6194535;28;98394;-73
2022/10/07 13:13:39;;;;;;;;;11.40;11.00;;;;;33.90;25.88;99621.72;6135553;28;96588;-73
2022/10/07 13:16:49;;;;;;;;;13.00;11.00;;;;;33.87;26.07;99608.41;6188384;28;96696;-73
2022/10/07 13:20:06;;;;;;;;;12.00;11.00;;;;;33.85;25.69;99612.75;6134024;28;96928;-71
2022/10/07 13:23:15;;;;;;;;;12.40;12.00;;;;;33.56;25.59;99608.34;6131241;28;96509;-71
2022/10/07 13:26:20;;;;;;;;;12.00;11.00;;;;;33.17;26.15;99593.25;6132561;28;96222;-71
2022/10/07 13:29:27;;;;;;;;;10.80;10.80;;;;;32.90;26.70;99594.81;6133865;28;96578;-71
2022/10/07 13:32:33;;;;;;;;;10.00;10.00;;;;;32.85;27.31;99591.44;6155363;27;96314;-72
2022/10/07 13:35:38;;;;;;;;;10.80;10.00;;;;;32.49;27.03;99579.16;6203394;27;96725;-72
2022/10/07 13:38:42;;;;;;;;;9.00;8.40;;;;;32.19;27.81;99586.16;6130991;28;96346;-73
2022/10/07 13:41:48;;;;;;;;;12.00;10.00;;;;;32.20;27.28;99577.44;6132917;28;96623;-75
2022/10/07 13:44:52;;;;;;;;;10.40;10.40;;;;;32.01;27.43;99570.78;6150658;27;96902;-74
2022/10/07 13:47:57;;;;;;;;;12.00;11.60;;;;;31.61;28.12;99565.00;6183692;27;97412;-73
2022/10/07 13:51:02;;;;;;;;;11.00;11.00;;;;;30.98;29.04;99556.69;6211106;27;98598;-72
2022/10/07 13:54:17;;;;;;;;;11.00;10.00;;;;;30.95;28.76;99550.97;6129363;27;96258;-74
2022/10/07 13:57:22;;;;;;;;;10.50;10.00;;;;;30.81;29.87;99547.66;6194754;28;96574;-72
2022/10/07 14:00:27;;;;;;;;;10.00;10.00;;;;;30.42;30.09;99540.56;6196855;27;97612;-74
2022/10/07 14:03:30;;;;;;;;;11.00;11.00;;;;;30.17;29.96;99536.78;6198759;28;97617;-71
2022/10/07 14:06:43;;;;;;;;;12.00;9.60;;;;;30.09;30.51;99529.31;6129995;27;96495;-72
2022/10/07 14:09:47;;;;;;;;;11.00;11.00;;;;;30.12;30.68;99529.44;6137122;27;96758;-72
2022/10/07 14:12:56;;;;;;;;;10.00;10.00;;;;;30.13;30.99;99521.91;6197014;27;96382;-72
2022/10/07 14:16:01;;;;;;;;;10.20;9.80;;;;;30.26;30.62;99514.47;6233210;27;98604;-73
2022/10/07 14:19:04;;;;;;;;;10.60;10.00;;;;;30.36;30.88;99506.53;6142420;27;96375;-72
2022/10/07 14:22:19;;;;;;;;;10.20;10.00;;;;;30.18;30.86;99509.78;6200021;28;98357;-72
2022/10/07 14:25:26;;;;;;;;;10.00;10.00;;;;;30.02;31.08;99503.97;6138982;27;96314;-72